createdAt,value
2022-12-08T00:00:21.319Z,297
2022-12-08T00:00:52.987Z,297
2022-12-08T00:01:24.858Z,297
2022-12-08T00:01:56.979Z,297
2022-12-08T00:02:29.013Z,297
2022-12-08T00:03:00.992Z,297
2022-12-08T00:03:32.861Z,297
2022-12-08T00:04:05.324Z,297
2022-12-08T00:04:36.727Z,297
2022-12-08T00:05:09.015Z,297
2022-12-08T00:05:40.624Z,297
2022-12-08T00:06:12.763Z,298
2022-12-08T00:06:28.841Z,298
2022-12-08T00:07:12.878Z,298
2022-12-08T00:07:44.797Z,298
2022-12-08T00:08:16.709Z,309
2022-12-08T00:08:48.698Z,309
2022-12-08T00:09:20.587Z,309
2022-12-08T00:09:52.744Z,309
2022-12-08T00:10:47.253Z,309
2022-12-08T00:10:56.498Z,309
2022-12-08T00:11:12.567Z,309
2022-12-08T00:11:44.505Z,309
2022-12-08T00:12:28.671Z,309
2022-12-08T00:13:00.382Z,309
2022-12-08T00:13:16.487Z,309
2022-12-08T00:13:48.491Z,308
2022-12-08T00:14:32.308Z,308
2022-12-08T00:15:06.804Z,308
2022-12-08T00:15:36.279Z,308
2022-12-08T00:16:08.243Z,308
2022-12-08T00:16:40.514Z,307
2022-12-08T00:17:12.162Z,307
2022-12-08T00:17:28.418Z,307
2022-12-08T00:18:00.193Z,307
2022-12-08T00:18:44.243Z,307
2022-12-08T00:19:16.313Z,307
2022-12-08T00:19:48.120Z,307
2022-12-08T00:20:20.668Z,307
2022-12-08T00:20:52.087Z,308
2022-12-08T00:21:24.203Z,307
2022-12-08T00:21:55.874Z,307
2022-12-08T00:22:12.065Z,307
2022-12-08T00:22:55.932Z,308
2022-12-08T00:23:28.207Z,307
2022-12-08T00:23:59.810Z,307
2022-12-08T00:24:31.856Z,307
2022-12-08T00:25:05.156Z,308
2022-12-08T00:25:35.942Z,307
2022-12-08T00:26:07.906Z,308
2022-12-08T00:26:39.823Z,307
2022-12-08T00:27:11.734Z,307
2022-12-08T00:27:43.952Z,307
2022-12-08T00:28:15.681Z,307
2022-12-08T00:28:47.811Z,307
2022-12-08T00:29:19.875Z,308
2022-12-08T00:29:51.670Z,307
2022-12-08T00:30:24.028Z,308
2022-12-08T00:30:55.720Z,307
2022-12-08T00:31:11.730Z,307
2022-12-08T00:31:43.684Z,307
2022-12-08T00:32:27.611Z,307
2022-12-08T00:32:59.470Z,307
2022-12-08T00:33:15.707Z,307
2022-12-08T00:33:47.362Z,307
2022-12-08T00:34:31.549Z,307
2022-12-08T00:35:04.990Z,307
2022-12-08T00:35:38.777Z,307
2022-12-08T00:36:07.550Z,307
2022-12-08T00:36:39.443Z,307
2022-12-08T00:37:11.430Z,307
2022-12-08T00:37:43.305Z,307
2022-12-08T00:38:15.443Z,307
2022-12-08T00:38:47.364Z,307
2022-12-08T00:39:19.418Z,307
2022-12-08T00:39:51.207Z,307
2022-12-08T00:40:23.518Z,307
2022-12-08T00:40:55.426Z,307
2022-12-08T00:41:27.166Z,307
2022-12-08T00:41:43.284Z,307
2022-12-08T00:42:15.421Z,309
2022-12-08T00:42:59.145Z,311
2022-12-08T00:43:31.213Z,310
2022-12-08T00:44:03.846Z,310
2022-12-08T00:44:35.076Z,310
2022-12-08T00:45:07.969Z,310
2022-12-08T00:45:39.136Z,310
2022-12-08T00:46:11.119Z,310
2022-12-08T00:46:27.121Z,310
2022-12-08T00:47:11.093Z,310
2022-12-08T00:47:42.954Z,311
2022-12-08T00:48:14.896Z,311
2022-12-08T00:48:46.792Z,310
2022-12-08T00:49:18.942Z,310
2022-12-08T00:49:50.856Z,310
2022-12-08T00:50:22.974Z,310
2022-12-08T00:50:54.943Z,310
2022-12-08T00:51:10.954Z,310
2022-12-08T00:51:42.716Z,310
2022-12-08T00:52:27.010Z,310
2022-12-08T00:52:58.703Z,310
2022-12-08T00:53:14.849Z,310
2022-12-08T00:53:46.695Z,310
2022-12-08T00:54:30.699Z,310
2022-12-08T00:55:03.310Z,310
2022-12-08T00:55:34.690Z,310
2022-12-08T00:56:06.517Z,310
2022-12-08T00:56:38.621Z,310
2022-12-08T00:57:10.742Z,310
2022-12-08T00:57:42.459Z,310
2022-12-08T00:58:14.578Z,310
2022-12-08T00:58:46.484Z,310
2022-12-08T00:59:18.792Z,311
2022-12-08T00:59:50.353Z,311
2022-12-08T01:00:22.771Z,310
2022-12-08T01:00:54.827Z,310
2022-12-08T01:01:26.595Z,310
2022-12-08T01:01:58.413Z,310
2022-12-08T01:02:30.312Z,310
2022-12-08T01:03:02.508Z,310
2022-12-08T01:03:34.364Z,310
2022-12-08T01:04:06.208Z,310
2022-12-08T01:04:38.292Z,310
2022-12-08T01:05:10.641Z,310
2022-12-08T01:05:42.043Z,310
2022-12-08T01:06:14.223Z,310
2022-12-08T01:06:46.179Z,310
2022-12-08T01:07:18.326Z,310
2022-12-08T01:07:50.387Z,310
2022-12-08T01:08:22.147Z,310
2022-12-08T01:08:54.189Z,310
2022-12-08T01:09:26.150Z,310
2022-12-08T01:09:57.826Z,310
2022-12-08T01:10:30.252Z,310
2022-12-08T01:11:02.189Z,310
2022-12-08T01:11:34.113Z,310
2022-12-08T01:12:05.964Z,310
2022-12-08T01:12:37.796Z,310
2022-12-08T01:12:54.039Z,310
2022-12-08T01:13:37.940Z,310
2022-12-08T01:14:10.062Z,310
2022-12-08T01:14:41.747Z,311
2022-12-08T01:15:15.005Z,311
2022-12-08T01:15:45.824Z,310
2022-12-08T01:16:17.966Z,311
2022-12-08T01:16:49.842Z,310
2022-12-08T01:17:21.656Z,310
2022-12-08T01:17:53.834Z,310
2022-12-08T01:18:25.923Z,310
2022-12-08T01:18:57.602Z,310
2022-12-08T01:19:29.648Z,310
2022-12-08T01:20:03.024Z,310
2022-12-08T01:20:33.854Z,310
2022-12-08T01:21:05.778Z,310
2022-12-08T01:21:37.514Z,310
2022-12-08T01:22:09.649Z,310
2022-12-08T01:22:41.595Z,310
2022-12-08T01:23:13.499Z,310
2022-12-08T01:23:45.569Z,310
2022-12-08T01:24:17.392Z,310
2022-12-08T01:24:49.583Z,310
2022-12-08T01:25:21.713Z,310
2022-12-08T01:25:53.572Z,310
2022-12-08T01:26:09.503Z,310
2022-12-08T01:26:41.255Z,310
2022-12-08T01:27:25.509Z,310
2022-12-08T01:27:57.106Z,310
2022-12-08T01:28:29.355Z,310
2022-12-08T01:29:01.408Z,310
2022-12-08T01:29:33.048Z,310
2022-12-08T01:30:07.208Z,310
2022-12-08T01:30:37.240Z,310
2022-12-08T01:31:09.204Z,310
2022-12-08T01:31:41.256Z,310
2022-12-08T01:32:12.990Z,310
2022-12-08T01:32:45.134Z,310
2022-12-08T01:33:17.133Z,310
2022-12-08T01:33:48.864Z,310
2022-12-08T01:34:20.872Z,311
2022-12-08T01:34:53.066Z,311
2022-12-08T01:35:25.331Z,311
2022-12-08T01:35:56.850Z,311
2022-12-08T01:36:28.894Z,310
2022-12-08T01:37:00.929Z,310
2022-12-08T01:37:32.794Z,310
2022-12-08T01:38:05.475Z,310
2022-12-08T01:38:36.853Z,310
2022-12-08T01:38:53.031Z,310
2022-12-08T01:39:24.819Z,310
2022-12-08T01:39:40.942Z,310
2022-12-08T01:40:12.948Z,310
2022-12-08T01:40:44.694Z,310
2022-12-08T01:41:16.625Z,310
2022-12-08T01:41:48.877Z,310
2022-12-08T01:42:20.903Z,310
2022-12-08T01:42:52.575Z,310
2022-12-08T01:43:24.829Z,310
2022-12-08T01:43:56.655Z,310
2022-12-08T01:44:28.475Z,310
2022-12-08T01:45:01.728Z,310
2022-12-08T01:45:32.524Z,310
2022-12-08T01:46:05.249Z,310
2022-12-08T01:46:36.684Z,310
2022-12-08T01:47:08.479Z,310
2022-12-08T01:47:40.601Z,310
2022-12-08T01:48:12.437Z,310
2022-12-08T01:48:44.578Z,310
2022-12-08T01:49:16.287Z,311
2022-12-08T01:49:48.271Z,311
2022-12-08T01:50:20.748Z,311
2022-12-08T01:50:52.464Z,312
2022-12-08T01:51:24.346Z,316
2022-12-08T01:51:40.400Z,316
2022-12-08T01:52:12.063Z,316
2022-12-08T01:52:56.325Z,316
2022-12-08T01:53:28.098Z,316
2022-12-08T01:54:00.117Z,316
2022-12-08T01:54:32.160Z,315
2022-12-08T01:55:05.384Z,315
2022-12-08T01:55:36.042Z,314
2022-12-08T01:55:52.446Z,314
2022-12-08T01:56:24.281Z,314
2022-12-08T01:57:08.035Z,314
2022-12-08T01:57:40.220Z,314
2022-12-08T01:58:11.976Z,315
2022-12-08T01:58:44.019Z,315
2022-12-08T01:59:16.044Z,315
2022-12-08T01:59:47.799Z,315
2022-12-08T02:00:20.414Z,314
2022-12-08T02:00:51.910Z,314
2022-12-08T02:01:24.015Z,314
2022-12-08T02:01:56.166Z,314
2022-12-08T02:02:27.836Z,314
2022-12-08T02:02:59.788Z,314
2022-12-08T02:03:31.816Z,314
2022-12-08T02:04:04.242Z,314
2022-12-08T02:04:35.946Z,314
2022-12-08T02:04:51.877Z,314
2022-12-08T02:05:36.127Z,314
2022-12-08T02:06:07.816Z,314
2022-12-08T02:06:39.503Z,314
2022-12-08T02:07:11.665Z,314
2022-12-08T02:07:43.728Z,314
2022-12-08T02:08:15.883Z,314
2022-12-08T02:08:47.454Z,314
2022-12-08T02:09:19.550Z,314
2022-12-08T02:09:51.551Z,314
2022-12-08T02:10:23.875Z,314
2022-12-08T02:10:55.517Z,314
2022-12-08T02:11:27.395Z,314
2022-12-08T02:11:59.408Z,314
2022-12-08T02:12:31.526Z,314
2022-12-08T02:13:03.519Z,314
2022-12-08T02:13:35.615Z,315
2022-12-08T02:13:51.552Z,315
2022-12-08T02:14:23.286Z,316
2022-12-08T02:14:39.326Z,316
2022-12-08T02:15:12.480Z,315
2022-12-08T02:15:43.275Z,315
2022-12-08T02:16:15.426Z,315
2022-12-08T02:16:47.272Z,315
2022-12-08T02:17:19.092Z,315
2022-12-08T02:17:51.164Z,315
2022-12-08T02:18:23.166Z,315
2022-12-08T02:19:28.582Z,315
2022-12-08T02:19:43.098Z,315
2022-12-08T02:20:27.258Z,315
2022-12-08T02:20:59.045Z,315
2022-12-08T02:21:31.191Z,315
2022-12-08T02:22:03.859Z,315
2022-12-08T02:22:35.279Z,315
2022-12-08T02:22:51.162Z,315
2022-12-08T02:23:35.209Z,315
2022-12-08T02:24:07.003Z,315
2022-12-08T02:24:38.882Z,315
2022-12-08T02:25:11.234Z,315
2022-12-08T02:25:42.873Z,315
2022-12-08T02:26:15.176Z,315
2022-12-08T02:26:46.733Z,315
2022-12-08T02:27:18.776Z,315
2022-12-08T02:27:50.897Z,315
2022-12-08T02:28:22.796Z,315
2022-12-08T02:28:54.791Z,315
2022-12-08T02:29:26.743Z,315
2022-12-08T02:29:58.717Z,315
2022-12-08T02:30:31.255Z,315
2022-12-08T02:31:03.115Z,315
2022-12-08T02:31:34.782Z,315
2022-12-08T02:31:50.915Z,315
2022-12-08T02:32:22.512Z,315
2022-12-08T02:32:38.595Z,315
2022-12-08T02:33:10.834Z,315
2022-12-08T02:33:42.467Z,315
2022-12-08T02:34:14.636Z,315
2022-12-08T02:34:46.595Z,315
2022-12-08T02:35:18.529Z,315
2022-12-08T02:35:50.395Z,315
2022-12-08T02:36:06.494Z,315
2022-12-08T02:36:38.520Z,315
2022-12-08T02:37:22.472Z,315
2022-12-08T02:37:54.357Z,315
2022-12-08T02:38:10.751Z,315
2022-12-08T02:38:42.889Z,315
2022-12-08T02:39:27.055Z,315
2022-12-08T02:39:58.342Z,315
2022-12-08T02:40:30.465Z,315
2022-12-08T02:41:02.607Z,315
2022-12-08T02:41:34.348Z,315
2022-12-08T02:42:06.282Z,315
2022-12-08T02:42:38.097Z,315
2022-12-08T02:43:10.260Z,316
2022-12-08T02:43:42.129Z,315
2022-12-08T02:44:13.946Z,315
2022-12-08T02:44:45.988Z,315
2022-12-08T02:45:18.640Z,315
2022-12-08T02:45:50.198Z,315
2022-12-08T02:46:22.062Z,315
2022-12-08T02:46:38.154Z,315
2022-12-08T02:47:10.111Z,315
2022-12-08T02:47:54.049Z,315
2022-12-08T02:48:26.184Z,315
2022-12-08T02:48:57.714Z,315
2022-12-08T02:49:29.870Z,315
2022-12-08T02:50:03.574Z,315
2022-12-08T02:50:33.868Z,315
2022-12-08T02:51:06.029Z,315
2022-12-08T02:51:21.875Z,315
2022-12-08T02:52:06.038Z,315
2022-12-08T02:52:21.761Z,315
2022-12-08T02:53:21.527Z,315
2022-12-08T02:53:37.880Z,315
2022-12-08T02:54:09.607Z,315
2022-12-08T02:54:41.747Z,315
2022-12-08T02:55:14.022Z,315
2022-12-08T02:55:45.771Z,315
2022-12-08T02:56:17.529Z,315
2022-12-08T02:56:49.795Z,315
2022-12-08T02:57:21.744Z,315
2022-12-08T02:57:53.576Z,315
2022-12-08T02:58:25.566Z,315
2022-12-08T02:58:57.420Z,315
2022-12-08T02:59:29.542Z,315
2022-12-08T03:00:04.799Z,315
2022-12-08T03:00:33.327Z,315
2022-12-08T03:00:49.690Z,315
2022-12-08T03:01:33.499Z,315
2022-12-08T03:02:05.794Z,315
2022-12-08T03:02:37.563Z,315
2022-12-08T03:03:09.324Z,315
2022-12-08T03:03:41.324Z,315
2022-12-08T03:04:13.229Z,315
2022-12-08T03:04:45.455Z,315
2022-12-08T03:05:17.447Z,315
2022-12-08T03:05:49.199Z,315
2022-12-08T03:06:21.316Z,315
2022-12-08T03:06:53.129Z,315
2022-12-08T03:07:25.177Z,315
2022-12-08T03:07:57.159Z,315
2022-12-08T03:08:29.194Z,315
2022-12-08T03:09:01.144Z,315
2022-12-08T03:09:32.968Z,315
2022-12-08T03:10:05.851Z,315
2022-12-08T03:10:36.946Z,315
2022-12-08T03:11:09.090Z,315
2022-12-08T03:11:41.068Z,315
2022-12-08T03:12:12.826Z,316
2022-12-08T03:12:45.024Z,316
2022-12-08T03:13:17.012Z,316
2022-12-08T03:13:48.803Z,316
2022-12-08T03:14:05.448Z,316
2022-12-08T03:14:36.643Z,316
2022-12-08T03:15:21.263Z,316
2022-12-08T03:15:53.059Z,316
2022-12-08T03:16:24.916Z,316
2022-12-08T03:16:56.851Z,316
2022-12-08T03:17:28.680Z,316
2022-12-08T03:18:00.902Z,316
2022-12-08T03:18:32.533Z,316
2022-12-08T03:18:48.733Z,316
2022-12-08T03:19:32.668Z,316
2022-12-08T03:20:05.661Z,316
2022-12-08T03:20:36.687Z,316
2022-12-08T03:21:08.515Z,316
2022-12-08T03:21:40.620Z,316
2022-12-08T03:22:12.496Z,316
2022-12-08T03:22:44.674Z,316
2022-12-08T03:23:16.409Z,316
2022-12-08T03:23:48.569Z,316
2022-12-08T03:24:20.587Z,316
2022-12-08T03:24:52.452Z,316
2022-12-08T03:25:24.754Z,316
2022-12-08T03:25:56.569Z,316
2022-12-08T03:26:28.379Z,316
2022-12-08T03:27:00.549Z,316
2022-12-08T03:27:32.323Z,316
2022-12-08T03:27:48.452Z,316
2022-12-08T03:28:20.503Z,316
2022-12-08T03:28:36.598Z,316
2022-12-08T03:29:08.389Z,316
2022-12-08T03:29:40.028Z,316
2022-12-08T03:30:13.142Z,316
2022-12-08T03:30:44.396Z,316
2022-12-08T03:31:16.350Z,316
2022-12-08T03:31:48.123Z,316
2022-12-08T03:32:04.967Z,316
2022-12-08T03:32:36.434Z,316
2022-12-08T03:33:20.353Z,316
2022-12-08T03:33:52.123Z,316
2022-12-08T03:34:24.115Z,316
2022-12-08T03:34:55.946Z,316
2022-12-08T03:35:28.245Z,315
2022-12-08T03:36:00.016Z,315
2022-12-08T03:36:31.861Z,315
2022-12-08T03:36:48.034Z,315
2022-12-08T03:37:32.019Z,315
2022-12-08T03:38:04.769Z,316
2022-12-08T03:38:36.183Z,315
2022-12-08T03:39:07.803Z,316
2022-12-08T03:39:39.812Z,315
2022-12-08T03:40:12.156Z,315
2022-12-08T03:40:43.904Z,316
2022-12-08T03:41:15.837Z,316
2022-12-08T03:41:47.811Z,316
2022-12-08T03:42:20.061Z,315
2022-12-08T03:42:51.806Z,316
2022-12-08T03:43:23.710Z,316
2022-12-08T03:43:55.850Z,316
2022-12-08T03:44:27.634Z,315
2022-12-08T03:44:59.652Z,315
2022-12-08T03:45:31.917Z,315
2022-12-08T03:45:47.702Z,315
2022-12-08T03:46:35.828Z,316
2022-12-08T03:47:07.514Z,315
2022-12-08T03:47:39.497Z,315
2022-12-08T03:48:11.587Z,316
2022-12-08T03:48:43.454Z,316
2022-12-08T03:49:15.518Z,316
2022-12-08T03:49:47.540Z,315
2022-12-08T03:50:05.104Z,315
2022-12-08T03:50:35.518Z,315
2022-12-08T03:51:19.364Z,315
2022-12-08T03:51:51.325Z,316
2022-12-08T03:52:23.310Z,315
2022-12-08T03:52:55.363Z,315
2022-12-08T03:53:27.203Z,315
2022-12-08T03:53:59.092Z,316
2022-12-08T03:54:31.217Z,316
2022-12-08T03:55:04.100Z,315
2022-12-08T03:55:35.115Z,315
2022-12-08T03:56:06.927Z,315
2022-12-08T03:56:39.062Z,315
2022-12-08T03:57:11.162Z,315
2022-12-08T03:57:42.996Z,315
2022-12-08T03:58:15.101Z,315
2022-12-08T03:58:47.010Z,315
2022-12-08T03:59:18.988Z,315
2022-12-08T03:59:51.132Z,315
2022-12-08T04:00:23.270Z,315
2022-12-08T04:00:55.109Z,315
2022-12-08T04:01:27.032Z,315
2022-12-08T04:01:58.813Z,315
2022-12-08T04:02:30.850Z,315
2022-12-08T04:02:46.867Z,315
2022-12-08T04:03:18.749Z,315
2022-12-08T04:03:35.061Z,315
2022-12-08T04:04:07.185Z,315
2022-12-08T04:04:38.661Z,315
2022-12-08T04:05:10.959Z,315
2022-12-08T04:05:42.666Z,315
2022-12-08T04:06:14.978Z,315
2022-12-08T04:06:46.537Z,315
2022-12-08T04:07:03.074Z,315
2022-12-08T04:07:34.592Z,315
2022-12-08T04:08:18.781Z,315
2022-12-08T04:08:50.763Z,315
2022-12-08T04:09:22.536Z,315
2022-12-08T04:09:54.781Z,315
2022-12-08T04:10:26.800Z,315
2022-12-08T04:10:58.491Z,315
2022-12-08T04:11:30.474Z,315
2022-12-08T04:11:46.532Z,315
2022-12-08T04:12:30.393Z,315
2022-12-08T04:13:02.881Z,315
2022-12-08T04:13:34.358Z,316
2022-12-08T04:14:06.301Z,315
2022-12-08T04:14:38.368Z,315
2022-12-08T04:15:11.405Z,315
2022-12-08T04:15:42.453Z,315
2022-12-08T04:16:14.519Z,315
2022-12-08T04:16:30.478Z,315
2022-12-08T04:17:02.783Z,315
2022-12-08T04:17:18.357Z,315
2022-12-08T04:17:50.306Z,315
2022-12-08T04:18:22.112Z,315
2022-12-08T04:18:54.236Z,315
2022-12-08T04:19:26.263Z,315
2022-12-08T04:19:58.130Z,316
2022-12-08T04:20:30.208Z,315
2022-12-08T04:21:02.348Z,315
2022-12-08T04:21:34.119Z,315
2022-12-08T04:22:06.210Z,315
2022-12-08T04:22:37.928Z,315
2022-12-08T04:23:12.080Z,315
2022-12-08T04:23:41.940Z,315
2022-12-08T04:24:14.141Z,315
2022-12-08T04:24:46.089Z,315
2022-12-08T04:25:02.757Z,315
2022-12-08T04:25:33.860Z,315
2022-12-08T04:26:17.958Z,315
2022-12-08T04:26:49.625Z,315
2022-12-08T04:27:21.950Z,315
2022-12-08T04:27:54.137Z,315
2022-12-08T04:28:25.917Z,315
2022-12-08T04:28:57.598Z,315
2022-12-08T04:29:29.581Z,316
2022-12-08T04:29:46.021Z,316
2022-12-08T04:30:30.021Z,316
2022-12-08T04:31:01.992Z,316
2022-12-08T04:31:33.640Z,316
2022-12-08T04:32:05.854Z,316
2022-12-08T04:32:38.957Z,316
2022-12-08T04:33:09.700Z,316
2022-12-08T04:33:41.480Z,316
2022-12-08T04:34:13.437Z,316
2022-12-08T04:34:45.848Z,316
2022-12-08T04:35:17.770Z,316
2022-12-08T04:35:49.318Z,316
2022-12-08T04:36:21.483Z,316
2022-12-08T04:36:53.378Z,316
2022-12-08T04:37:25.601Z,316
2022-12-08T04:37:57.541Z,315
2022-12-08T04:38:29.232Z,316
2022-12-08T04:39:01.508Z,316
2022-12-08T04:39:33.245Z,316
2022-12-08T04:40:06.210Z,316
2022-12-08T04:40:37.421Z,316
2022-12-08T04:41:09.239Z,316
2022-12-08T04:41:41.432Z,316
2022-12-08T04:42:13.336Z,316
2022-12-08T04:42:45.369Z,315
2022-12-08T04:43:01.445Z,315
2022-12-08T04:43:33.074Z,315
2022-12-08T04:44:17.120Z,315
2022-12-08T04:44:49.115Z,315
2022-12-08T04:45:21.486Z,315
2022-12-08T04:45:52.877Z,315
2022-12-08T04:46:25.282Z,315
2022-12-08T04:46:57.309Z,315
2022-12-08T04:47:28.845Z,315
2022-12-08T04:48:01.189Z,315
2022-12-08T04:48:32.959Z,315
2022-12-08T04:49:05.337Z,315
2022-12-08T04:49:36.923Z,315
2022-12-08T04:50:14.099Z,315
2022-12-08T04:50:40.987Z,315
2022-12-08T04:51:12.839Z,315
2022-12-08T04:51:45.092Z,315
2022-12-08T04:52:00.848Z,315
2022-12-08T04:52:45.070Z,315
2022-12-08T04:53:16.896Z,315
2022-12-08T04:53:48.730Z,315
2022-12-08T04:54:20.788Z,315
2022-12-08T04:54:52.605Z,315
2022-12-08T04:55:25.357Z,315
2022-12-08T04:55:56.460Z,316
2022-12-08T04:56:28.561Z,315
2022-12-08T04:56:44.983Z,316
2022-12-08T04:57:16.521Z,316
2022-12-08T04:57:32.661Z,316
2022-12-08T04:58:05.221Z,315
2022-12-08T04:58:36.457Z,316
2022-12-08T04:59:08.473Z,315
2022-12-08T04:59:40.718Z,315
2022-12-08T05:00:13.347Z,315
2022-12-08T05:00:44.686Z,315
2022-12-08T05:01:00.685Z,315
2022-12-08T05:01:32.521Z,315
2022-12-08T05:02:16.621Z,315
2022-12-08T05:02:48.311Z,315
2022-12-08T05:03:25.248Z,315
2022-12-08T05:03:52.217Z,315
2022-12-08T05:04:24.634Z,315
2022-12-08T05:04:56.226Z,315
2022-12-08T05:05:28.525Z,315
2022-12-08T05:05:44.770Z,315
2022-12-08T05:06:28.283Z,315
2022-12-08T05:07:00.466Z,315
2022-12-08T05:07:32.068Z,315
2022-12-08T05:08:04.986Z,315
2022-12-08T05:08:36.318Z,315
2022-12-08T05:09:08.161Z,315
2022-12-08T05:09:40.070Z,315
2022-12-08T05:10:12.331Z,315
2022-12-08T05:10:44.000Z,315
2022-12-08T05:11:16.256Z,315
2022-12-08T05:11:49.212Z,315
2022-12-08T05:12:19.831Z,315
2022-12-08T05:12:51.903Z,316
2022-12-08T05:13:24.432Z,316
2022-12-08T05:13:55.962Z,316
2022-12-08T05:14:27.828Z,315
2022-12-08T05:14:59.940Z,315
2022-12-08T05:15:32.180Z,315
2022-12-08T05:16:04.800Z,316
2022-12-08T05:16:36.076Z,316
2022-12-08T05:17:09.487Z,315
2022-12-08T05:17:39.741Z,315
2022-12-08T05:18:11.582Z,315
2022-12-08T05:18:43.845Z,315
2022-12-08T05:19:15.914Z,316
2022-12-08T05:19:47.612Z,315
2022-12-08T05:20:19.774Z,315
2022-12-08T05:20:51.610Z,315
2022-12-08T05:21:23.649Z,315
2022-12-08T05:21:55.811Z,315
2022-12-08T05:22:27.461Z,315
2022-12-08T05:22:43.518Z,315
2022-12-08T05:23:27.491Z,315
2022-12-08T05:23:59.361Z,315
2022-12-08T05:24:31.569Z,315
2022-12-08T05:25:04.504Z,315
2022-12-08T05:25:35.414Z,315
2022-12-08T05:26:07.421Z,315
2022-12-08T05:26:39.445Z,315
2022-12-08T05:27:11.281Z,315
2022-12-08T05:27:43.265Z,315
2022-12-08T05:28:32.353Z,315
2022-12-08T05:28:43.767Z,315
2022-12-08T05:29:15.485Z,315
2022-12-08T05:29:47.048Z,315
2022-12-08T05:30:19.660Z,315
2022-12-08T05:30:51.157Z,315
2022-12-08T05:31:23.219Z,316
2022-12-08T05:31:55.430Z,315
2022-12-08T05:32:27.150Z,315
2022-12-08T05:32:59.065Z,316
2022-12-08T05:33:31.371Z,315
2022-12-08T05:34:03.728Z,315
2022-12-08T05:34:35.131Z,315
2022-12-08T05:35:07.228Z,315
2022-12-08T05:35:39.105Z,315
2022-12-08T05:36:10.946Z,315
2022-12-08T05:36:42.963Z,316
2022-12-08T05:37:15.036Z,316
2022-12-08T05:37:46.992Z,316
2022-12-08T05:38:18.795Z,315
2022-12-08T05:38:50.733Z,315
2022-12-08T05:39:22.944Z,315
2022-12-08T05:39:55.003Z,316
2022-12-08T05:40:27.211Z,316
2022-12-08T05:40:42.816Z,316
2022-12-08T05:41:26.646Z,316
2022-12-08T05:41:58.763Z,316
2022-12-08T05:42:30.909Z,316
2022-12-08T05:43:02.546Z,316
2022-12-08T05:43:34.809Z,316
2022-12-08T05:44:06.649Z,316
2022-12-08T05:44:38.668Z,316
2022-12-08T05:45:11.973Z,316
2022-12-08T05:45:42.644Z,316
2022-12-08T05:46:14.795Z,316
2022-12-08T05:46:46.520Z,316
2022-12-08T05:47:18.410Z,316
2022-12-08T05:47:50.493Z,316
2022-12-08T05:48:22.445Z,315
2022-12-08T05:48:54.759Z,315
2022-12-08T05:49:26.323Z,316
2022-12-08T05:49:42.512Z,316
2022-12-08T05:50:14.815Z,315
2022-12-08T05:50:58.315Z,315
2022-12-08T05:51:30.484Z,316
2022-12-08T05:52:02.643Z,315
2022-12-08T05:52:34.330Z,315
2022-12-08T05:53:06.368Z,316
2022-12-08T05:53:38.244Z,315
2022-12-08T05:54:10.199Z,315
2022-12-08T05:54:42.173Z,316
2022-12-08T05:55:14.539Z,316
2022-12-08T05:55:46.178Z,315
2022-12-08T05:56:17.862Z,315
2022-12-08T05:56:50.062Z,315
2022-12-08T05:57:22.041Z,315
2022-12-08T05:57:54.242Z,315
2022-12-08T05:58:26.040Z,315
2022-12-08T05:58:42.234Z,315
2022-12-08T05:59:26.087Z,315
2022-12-08T05:59:57.989Z,315
2022-12-08T06:00:30.482Z,315
2022-12-08T06:01:02.467Z,315
2022-12-08T06:01:34.028Z,315
2022-12-08T06:02:06.355Z,315
2022-12-08T06:02:38.118Z,315
2022-12-08T06:03:09.850Z,315
2022-12-08T06:03:41.894Z,315
2022-12-08T06:04:13.942Z,315
2022-12-08T06:04:45.964Z,315
2022-12-08T06:05:17.877Z,315
2022-12-08T06:05:49.798Z,315
2022-12-08T06:06:21.812Z,315
2022-12-08T06:06:53.754Z,316
2022-12-08T06:07:26.021Z,316
2022-12-08T06:07:41.960Z,315
2022-12-08T06:08:13.747Z,315
2022-12-08T06:08:29.739Z,315
2022-12-08T06:09:01.880Z,315
2022-12-08T06:09:33.412Z,315
2022-12-08T06:10:06.383Z,315
2022-12-08T06:10:37.726Z,315
2022-12-08T06:11:09.832Z,315
2022-12-08T06:11:41.550Z,315
2022-12-08T06:11:57.577Z,315
2022-12-08T06:12:29.339Z,316
2022-12-08T06:13:13.519Z,316
2022-12-08T06:13:45.317Z,315
2022-12-08T06:14:17.246Z,315
2022-12-08T06:14:49.317Z,315
2022-12-08T06:15:21.824Z,316
2022-12-08T06:15:53.116Z,315
2022-12-08T06:16:25.401Z,315
2022-12-08T06:16:41.540Z,315
2022-12-08T06:17:25.490Z,316
2022-12-08T06:17:57.338Z,316
2022-12-08T06:18:32.741Z,316
2022-12-08T06:19:01.465Z,316
2022-12-08T06:19:33.093Z,315
2022-12-08T06:20:06.189Z,315
2022-12-08T06:20:37.112Z,315
2022-12-08T06:21:09.074Z,315
2022-12-08T06:21:41.423Z,315
2022-12-08T06:22:13.151Z,316
2022-12-08T06:22:45.154Z,316
2022-12-08T06:23:17.072Z,315
2022-12-08T06:23:49.072Z,315
2022-12-08T06:24:20.895Z,315
2022-12-08T06:24:52.927Z,315
2022-12-08T06:25:25.541Z,315
2022-12-08T06:25:56.923Z,315
2022-12-08T06:26:28.796Z,315
2022-12-08T06:27:01.343Z,315
2022-12-08T06:27:32.679Z,316
2022-12-08T06:28:05.564Z,316
2022-12-08T06:28:36.734Z,316
2022-12-08T06:29:08.668Z,316
2022-12-08T06:29:41.065Z,316
2022-12-08T06:30:13.817Z,316
2022-12-08T06:30:44.751Z,316
2022-12-08T06:31:16.656Z,316
2022-12-08T06:31:32.754Z,315
2022-12-08T06:32:16.507Z,316
2022-12-08T06:32:48.631Z,315
2022-12-08T06:33:20.503Z,315
2022-12-08T06:33:52.409Z,315
2022-12-08T06:34:24.603Z,315
2022-12-08T06:34:56.526Z,315
2022-12-08T06:35:28.557Z,315
2022-12-08T06:36:00.551Z,315
2022-12-08T06:36:32.370Z,316
2022-12-08T06:37:05.009Z,315
2022-12-08T06:37:36.262Z,315
2022-12-08T06:38:08.370Z,315
2022-12-08T06:38:43.341Z,315
2022-12-08T06:39:12.304Z,315
2022-12-08T06:39:45.840Z,315
2022-12-08T06:40:16.563Z,315
2022-12-08T06:40:48.153Z,316
2022-12-08T06:41:20.350Z,315
2022-12-08T06:41:52.227Z,316
2022-12-08T06:42:24.132Z,315
2022-12-08T06:42:56.219Z,315
2022-12-08T06:43:28.083Z,315
2022-12-08T06:43:59.910Z,315
2022-12-08T06:44:32.044Z,316
2022-12-08T06:45:06.494Z,316
2022-12-08T06:45:36.275Z,316
2022-12-08T06:46:08.144Z,316
2022-12-08T06:46:39.968Z,316
2022-12-08T06:46:56.319Z,316
2022-12-08T06:47:27.776Z,316
2022-12-08T06:48:12.074Z,316
2022-12-08T06:48:43.859Z,316
2022-12-08T06:49:15.979Z,316
2022-12-08T06:49:47.825Z,316
2022-12-08T06:50:23.421Z,316
2022-12-08T06:50:51.933Z,316
2022-12-08T06:51:23.801Z,316
2022-12-08T06:51:55.842Z,316
2022-12-08T06:52:27.768Z,316
2022-12-08T06:53:05.103Z,316
2022-12-08T06:53:31.608Z,316
2022-12-08T06:54:04.091Z,316
2022-12-08T06:54:35.914Z,316
2022-12-08T06:55:07.776Z,316
2022-12-08T06:55:58.281Z,316
2022-12-08T06:56:11.771Z,315
2022-12-08T06:56:43.489Z,315
2022-12-08T06:57:15.772Z,316
2022-12-08T06:57:47.466Z,316
2022-12-08T06:58:19.517Z,316
2022-12-08T06:58:52.985Z,316
2022-12-08T06:59:23.352Z,316
2022-12-08T06:59:39.689Z,316
2022-12-08T07:00:12.958Z,316
2022-12-08T07:00:55.586Z,316
2022-12-08T07:01:27.492Z,316
2022-12-08T07:01:59.292Z,316
2022-12-08T07:02:31.273Z,316
2022-12-08T07:03:03.844Z,316
2022-12-08T07:03:35.831Z,316
2022-12-08T07:04:07.212Z,316
2022-12-08T07:04:39.225Z,316
2022-12-08T07:04:55.687Z,316
2022-12-08T07:05:27.614Z,316
2022-12-08T07:06:11.700Z,316
2022-12-08T07:06:48.164Z,316
2022-12-08T07:07:15.442Z,316
2022-12-08T07:07:47.417Z,316
2022-12-08T07:08:19.486Z,316
2022-12-08T07:08:51.089Z,316
2022-12-08T07:09:23.178Z,316
2022-12-08T07:09:39.381Z,316
2022-12-08T07:10:23.464Z,316
2022-12-08T07:10:55.372Z,316
2022-12-08T07:11:28.160Z,316
2022-12-08T07:11:59.057Z,316
2022-12-08T07:12:31.101Z,315
2022-12-08T07:13:03.489Z,316
2022-12-08T07:13:35.319Z,316